sensor_id;sensor_type;location;lat;lon;timestamp;temperature;humidity
39777;DHT22;25453;48.162;14.510;2023-03-05T00:00:20;6.40;55.40
39777;DHT22;25453;48.162;14.510;2023-03-05T00:02:48;6.40;55.30
39777;DHT22;25453;48.162;14.510;2023-03-05T00:05:15;6.40;55.30
39777;DHT22;25453;48.162;14.510;2023-03-05T00:07:42;6.50;55.40
39777;DHT22;25453;48.162;14.510;2023-03-05T00:10:09;6.50;55.40
39777;DHT22;25453;48.162;14.510;2023-03-05T00:12:36;6.60;55.30
39777;DHT22;25453;48.162;14.510;2023-03-05T00:15:03;6.60;55.20
39777;DHT22;25453;48.162;14.510;2023-03-05T00:17:30;6.60;55.20
39777;DHT22;25453;48.162;14.510;2023-03-05T00:19:57;6.70;55.20
39777;DHT22;25453;48.162;14.510;2023-03-05T00:22:27;6.70;55.20
39777;DHT22;25453;48.162;14.510;2023-03-05T00:24:54;6.70;55.20
39777;DHT22;25453;48.162;14.510;2023-03-05T00:27:21;6.70;55.10
39777;DHT22;25453;48.162;14.510;2023-03-05T00:29:48;6.70;55.10
39777;DHT22;25453;48.162;14.510;2023-03-05T00:32:15;6.70;55.10
39777;DHT22;25453;48.162;14.510;2023-03-05T00:34:42;6.70;55.10
39777;DHT22;25453;48.162;14.510;2023-03-05T00:37:09;6.70;55.10
39777;DHT22;25453;48.162;14.510;2023-03-05T00:39:36;6.70;55.20
39777;DHT22;25453;48.162;14.510;2023-03-05T00:42:03;6.70;55.20
39777;DHT22;25453;48.162;14.510;2023-03-05T00:44:30;6.70;55.10
39777;DHT22;25453;48.162;14.510;2023-03-05T00:46:57;6.70;55.30
39777;DHT22;25453;48.162;14.510;2023-03-05T00:49:24;6.70;55.20
39777;DHT22;25453;48.162;14.510;2023-03-05T00:51:51;6.80;55.20
39777;DHT22;25453;48.162;14.510;2023-03-05T00:54:18;6.70;55.10
39777;DHT22;25453;48.162;14.510;2023-03-05T00:56:45;6.70;55.30
39777;DHT22;25453;48.162;14.510;2023-03-05T00:59:13;6.70;55.40
39777;DHT22;25453;48.162;14.510;2023-03-05T01:01:40;6.70;55.30
39777;DHT22;25453;48.162;14.510;2023-03-05T01:04:07;6.70;55.40
39777;DHT22;25453;48.162;14.510;2023-03-05T01:06:34;6.70;55.60
39777;DHT22;25453;48.162;14.510;2023-03-05T01:09:01;6.80;55.60
39777;DHT22;25453;48.162;14.510;2023-03-05T01:11:28;6.80;55.60
39777;DHT22;25453;48.162;14.510;2023-03-05T01:13:55;6.80;55.70
39777;DHT22;25453;48.162;14.510;2023-03-05T01:16:22;6.80;55.60
39777;DHT22;25453;48.162;14.510;2023-03-05T01:18:49;6.80;55.70
39777;DHT22;25453;48.162;14.510;2023-03-05T01:21:16;6.80;55.80
39777;DHT22;25453;48.162;14.510;2023-03-05T01:23:42;6.70;55.80
39777;DHT22;25453;48.162;14.510;2023-03-05T01:26:10;6.70;56.10
39777;DHT22;25453;48.162;14.510;2023-03-05T01:28:36;6.80;56.10
39777;DHT22;25453;48.162;14.510;2023-03-05T01:31:08;6.80;56.10
39777;DHT22;25453;48.162;14.510;2023-03-05T01:33:35;6.80;56.10
39777;DHT22;25453;48.162;14.510;2023-03-05T01:36:06;6.80;56.20
39777;DHT22;25453;48.162;14.510;2023-03-05T01:38:34;6.90;56.20
39777;DHT22;25453;48.162;14.510;2023-03-05T01:41:00;6.90;56.10
39777;DHT22;25453;48.162;14.510;2023-03-05T01:43:29;6.90;56.10
39777;DHT22;25453;48.162;14.510;2023-03-05T01:48:39;6.90;56.00
39777;DHT22;25453;48.162;14.510;2023-03-05T01:51:07;6.90;56.00
39777;DHT22;25453;48.162;14.510;2023-03-05T01:53:34;6.90;56.00
39777;DHT22;25453;48.162;14.510;2023-03-05T01:56:01;6.90;56.00
39777;DHT22;25453;48.162;14.510;2023-03-05T01:58:29;6.90;56.10
39777;DHT22;25453;48.162;14.510;2023-03-05T02:00:56;6.90;56.10
39777;DHT22;25453;48.162;14.510;2023-03-05T02:03:23;6.90;56.10
39777;DHT22;25453;48.162;14.510;2023-03-05T02:05:51;7.00;56.00
39777;DHT22;25453;48.162;14.510;2023-03-05T02:08:21;7.00;56.00
39777;DHT22;25453;48.162;14.510;2023-03-05T02:10:49;7.00;56.00
39777;DHT22;25453;48.162;14.510;2023-03-05T02:13:21;7.00;56.00
39777;DHT22;25453;48.162;14.510;2023-03-05T02:15:48;7.00;56.00
39777;DHT22;25453;48.162;14.510;2023-03-05T02:18:16;7.00;56.00
39777;DHT22;25453;48.162;14.510;2023-03-05T02:20:44;7.00;56.10
39777;DHT22;25453;48.162;14.510;2023-03-05T02:23:12;7.00;56.00
39777;DHT22;25453;48.162;14.510;2023-03-05T02:25:39;7.00;56.10
39777;DHT22;25453;48.162;14.510;2023-03-05T02:30:43;7.00;56.20
39777;DHT22;25453;48.162;14.510;2023-03-05T02:33:10;7.00;56.40
39777;DHT22;25453;48.162;14.510;2023-03-05T02:35:39;6.90;56.50
39777;DHT22;25453;48.162;14.510;2023-03-05T02:38:06;6.90;56.60
39777;DHT22;25453;48.162;14.510;2023-03-05T02:40:32;6.90;56.90
39777;DHT22;25453;48.162;14.510;2023-03-05T02:42:59;6.90;57.10
39777;DHT22;25453;48.162;14.510;2023-03-05T02:45:26;6.90;57.30
39777;DHT22;25453;48.162;14.510;2023-03-05T02:47:53;6.80;57.40
39777;DHT22;25453;48.162;14.510;2023-03-05T02:50:21;6.80;57.70
39777;DHT22;25453;48.162;14.510;2023-03-05T02:52:48;6.80;57.80
39777;DHT22;25453;48.162;14.510;2023-03-05T02:55:15;6.80;58.00
39777;DHT22;25453;48.162;14.510;2023-03-05T02:57:42;6.80;58.20
39777;DHT22;25453;48.162;14.510;2023-03-05T03:00:09;6.70;58.40
39777;DHT22;25453;48.162;14.510;2023-03-05T03:02:36;6.70;58.50
39777;DHT22;25453;48.162;14.510;2023-03-05T03:05:03;6.70;58.60
39777;DHT22;25453;48.162;14.510;2023-03-05T03:07:30;6.70;58.80
39777;DHT22;25453;48.162;14.510;2023-03-05T03:09:57;6.70;58.90
39777;DHT22;25453;48.162;14.510;2023-03-05T03:12:24;6.70;58.90
39777;DHT22;25453;48.162;14.510;2023-03-05T03:14:51;6.70;59.00
39777;DHT22;25453;48.162;14.510;2023-03-05T03:17:18;6.80;59.10
39777;DHT22;25453;48.162;14.510;2023-03-05T03:19:45;6.80;59.20
39777;DHT22;25453;48.162;14.510;2023-03-05T03:22:13;6.80;59.20
39777;DHT22;25453;48.162;14.510;2023-03-05T03:24:40;6.80;59.30
39777;DHT22;25453;48.162;14.510;2023-03-05T03:27:07;6.80;59.30
39777;DHT22;25453;48.162;14.510;2023-03-05T03:29:34;6.80;59.30
39777;DHT22;25453;48.162;14.510;2023-03-05T03:32:02;6.80;59.40
39777;DHT22;25453;48.162;14.510;2023-03-05T03:34:29;6.80;59.40
39777;DHT22;25453;48.162;14.510;2023-03-05T03:36:56;6.90;59.40
39777;DHT22;25453;48.162;14.510;2023-03-05T03:39:22;6.90;59.40
39777;DHT22;25453;48.162;14.510;2023-03-05T03:41:51;6.90;59.40
39777;DHT22;25453;48.162;14.510;2023-03-05T03:44:19;6.90;59.40
39777;DHT22;25453;48.162;14.510;2023-03-05T03:46:47;6.90;59.40
39777;DHT22;25453;48.162;14.510;2023-03-05T03:49:16;6.90;59.40
39777;DHT22;25453;48.162;14.510;2023-03-05T03:51:43;6.90;59.30
39777;DHT22;25453;48.162;14.510;2023-03-05T03:54:10;6.90;59.30
39777;DHT22;25453;48.162;14.510;2023-03-05T03:56:38;6.90;59.30
39777;DHT22;25453;48.162;14.510;2023-03-05T03:59:04;6.90;59.30
39777;DHT22;25453;48.162;14.510;2023-03-05T04:01:31;6.80;59.40
39777;DHT22;25453;48.162;14.510;2023-03-05T04:03:58;6.90;59.40
39777;DHT22;25453;48.162;14.510;2023-03-05T04:06:25;6.90;59.40
39777;DHT22;25453;48.162;14.510;2023-03-05T04:08:52;6.90;59.40
39777;DHT22;25453;48.162;14.510;2023-03-05T04:11:19;6.90;59.40
39777;DHT22;25453;48.162;14.510;2023-03-05T04:13:46;6.90;59.40
39777;DHT22;25453;48.162;14.510;2023-03-05T04:16:14;6.90;59.30
39777;DHT22;25453;48.162;14.510;2023-03-05T04:18:41;6.90;59.20
39777;DHT22;25453;48.162;14.510;2023-03-05T04:21:08;6.90;59.30
39777;DHT22;25453;48.162;14.510;2023-03-05T04:23:35;6.90;59.30
39777;DHT22;25453;48.162;14.510;2023-03-05T04:26:02;6.90;59.30
39777;DHT22;25453;48.162;14.510;2023-03-05T04:28:29;6.90;59.40
39777;DHT22;25453;48.162;14.510;2023-03-05T04:30:57;6.90;59.40
39777;DHT22;25453;48.162;14.510;2023-03-05T04:33:24;6.90;59.40
39777;DHT22;25453;48.162;14.510;2023-03-05T04:35:51;6.90;59.40
39777;DHT22;25453;48.162;14.510;2023-03-05T04:38:18;6.90;59.40
39777;DHT22;25453;48.162;14.510;2023-03-05T04:40:45;6.90;59.40
39777;DHT22;25453;48.162;14.510;2023-03-05T04:43:13;6.90;59.50
39777;DHT22;25453;48.162;14.510;2023-03-05T04:45:40;6.90;59.50
39777;DHT22;25453;48.162;14.510;2023-03-05T04:48:08;6.90;59.50
39777;DHT22;25453;48.162;14.510;2023-03-05T04:50:37;6.90;59.60
39777;DHT22;25453;48.162;14.510;2023-03-05T04:53:04;6.90;59.70
39777;DHT22;25453;48.162;14.510;2023-03-05T04:55:31;7.00;59.70
39777;DHT22;25453;48.162;14.510;2023-03-05T04:57:58;7.00;59.70
39777;DHT22;25453;48.162;14.510;2023-03-05T05:00:25;7.00;59.80
39777;DHT22;25453;48.162;14.510;2023-03-05T05:02:52;7.00;59.90
39777;DHT22;25453;48.162;14.510;2023-03-05T05:05:20;7.00;60.00
39777;DHT22;25453;48.162;14.510;2023-03-05T05:07:48;7.00;60.00
39777;DHT22;25453;48.162;14.510;2023-03-05T05:10:15;7.00;60.10
39777;DHT22;25453;48.162;14.510;2023-03-05T05:12:42;7.00;60.30
39777;DHT22;25453;48.162;14.510;2023-03-05T05:15:10;7.00;60.30
39777;DHT22;25453;48.162;14.510;2023-03-05T05:17:37;7.00;60.40
39777;DHT22;25453;48.162;14.510;2023-03-05T05:20:05;7.00;60.50
39777;DHT22;25453;48.162;14.510;2023-03-05T05:22:33;7.00;60.50
39777;DHT22;25453;48.162;14.510;2023-03-05T05:25:00;7.00;60.60
39777;DHT22;25453;48.162;14.510;2023-03-05T05:27:27;7.00;60.80
39777;DHT22;25453;48.162;14.510;2023-03-05T05:29:54;7.00;60.80
39777;DHT22;25453;48.162;14.510;2023-03-05T05:32:22;7.00;60.70
39777;DHT22;25453;48.162;14.510;2023-03-05T05:34:53;7.00;60.80
39777;DHT22;25453;48.162;14.510;2023-03-05T05:37:21;6.90;60.90
39777;DHT22;25453;48.162;14.510;2023-03-05T05:39:48;6.90;60.90
39777;DHT22;25453;48.162;14.510;2023-03-05T05:42:16;6.90;60.80
39777;DHT22;25453;48.162;14.510;2023-03-05T05:44:43;6.90;60.90
39777;DHT22;25453;48.162;14.510;2023-03-05T05:47:10;6.90;61.00
39777;DHT22;25453;48.162;14.510;2023-03-05T05:49:37;6.90;61.10
39777;DHT22;25453;48.162;14.510;2023-03-05T05:52:04;7.00;61.10
39777;DHT22;25453;48.162;14.510;2023-03-05T05:54:31;7.00;61.10
39777;DHT22;25453;48.162;14.510;2023-03-05T05:56:58;7.00;61.00
39777;DHT22;25453;48.162;14.510;2023-03-05T05:59:25;7.00;61.00
39777;DHT22;25453;48.162;14.510;2023-03-05T06:01:52;7.00;61.00
39777;DHT22;25453;48.162;14.510;2023-03-05T06:04:19;7.00;61.00
39777;DHT22;25453;48.162;14.510;2023-03-05T06:06:46;7.00;61.00
39777;DHT22;25453;48.162;14.510;2023-03-05T06:09:13;7.00;61.00
39777;DHT22;25453;48.162;14.510;2023-03-05T06:11:40;7.00;61.10
39777;DHT22;25453;48.162;14.510;2023-03-05T06:14:08;7.00;61.00
39777;DHT22;25453;48.162;14.510;2023-03-05T06:16:36;7.00;61.10
39777;DHT22;25453;48.162;14.510;2023-03-05T06:19:03;7.00;61.00
39777;DHT22;25453;48.162;14.510;2023-03-05T06:21:30;7.00;61.00
39777;DHT22;25453;48.162;14.510;2023-03-05T06:23:57;7.00;60.90
39777;DHT22;25453;48.162;14.510;2023-03-05T06:26:24;7.00;60.90
39777;DHT22;25453;48.162;14.510;2023-03-05T06:28:51;7.00;61.00
39777;DHT22;25453;48.162;14.510;2023-03-05T06:31:22;7.00;61.10
39777;DHT22;25453;48.162;14.510;2023-03-05T06:33:53;7.00;61.10
39777;DHT22;25453;48.162;14.510;2023-03-05T06:36:21;7.00;61.10
39777;DHT22;25453;48.162;14.510;2023-03-05T06:38:49;7.00;61.00
39777;DHT22;25453;48.162;14.510;2023-03-05T06:41:20;7.00;61.00
39777;DHT22;25453;48.162;14.510;2023-03-05T06:43:47;7.00;61.00
39777;DHT22;25453;48.162;14.510;2023-03-05T06:46:19;7.00;60.90
39777;DHT22;25453;48.162;14.510;2023-03-05T06:48:47;7.00;60.90
39777;DHT22;25453;48.162;14.510;2023-03-05T06:51:17;7.00;61.00
39777;DHT22;25453;48.162;14.510;2023-03-05T06:53:44;7.00;60.90
39777;DHT22;25453;48.162;14.510;2023-03-05T06:56:14;7.00;60.90
39777;DHT22;25453;48.162;14.510;2023-03-05T06:58:43;7.00;61.00
39777;DHT22;25453;48.162;14.510;2023-03-05T07:01:11;7.00;61.00
39777;DHT22;25453;48.162;14.510;2023-03-05T07:03:39;7.00;61.20
39777;DHT22;25453;48.162;14.510;2023-03-05T07:06:07;7.00;61.10
39777;DHT22;25453;48.162;14.510;2023-03-05T07:08:34;7.00;61.20
39777;DHT22;25453;48.162;14.510;2023-03-05T07:11:02;7.00;61.30
39777;DHT22;25453;48.162;14.510;2023-03-05T07:13:29;6.90;61.30
39777;DHT22;25453;48.162;14.510;2023-03-05T07:15:56;6.90;61.30
39777;DHT22;25453;48.162;14.510;2023-03-05T07:18:23;6.90;61.40
39777;DHT22;25453;48.162;14.510;2023-03-05T07:20:50;6.90;61.50
39777;DHT22;25453;48.162;14.510;2023-03-05T07:23:17;6.90;61.50
39777;DHT22;25453;48.162;14.510;2023-03-05T07:25:44;6.90;61.40
39777;DHT22;25453;48.162;14.510;2023-03-05T07:28:11;6.90;61.50
39777;DHT22;25453;48.162;14.510;2023-03-05T07:30:37;6.90;61.50
39777;DHT22;25453;48.162;14.510;2023-03-05T07:33:04;6.90;61.50
39777;DHT22;25453;48.162;14.510;2023-03-05T07:35:31;6.90;61.60
39777;DHT22;25453;48.162;14.510;2023-03-05T07:37:58;6.90;61.60
39777;DHT22;25453;48.162;14.510;2023-03-05T07:40:25;6.90;61.60
39777;DHT22;25453;48.162;14.510;2023-03-05T07:42:52;6.90;61.70
39777;DHT22;25453;48.162;14.510;2023-03-05T07:45:20;7.00;61.70
39777;DHT22;25453;48.162;14.510;2023-03-05T07:47:47;7.00;61.70
39777;DHT22;25453;48.162;14.510;2023-03-05T07:50:16;7.00;61.70
39777;DHT22;25453;48.162;14.510;2023-03-05T07:52:43;7.00;61.70
39777;DHT22;25453;48.162;14.510;2023-03-05T07:55:12;7.00;61.70
39777;DHT22;25453;48.162;14.510;2023-03-05T07:57:39;7.10;61.70
39777;DHT22;25453;48.162;14.510;2023-03-05T08:00:06;7.10;61.60
39777;DHT22;25453;48.162;14.510;2023-03-05T08:02:33;7.10;61.70
39777;DHT22;25453;48.162;14.510;2023-03-05T08:05:00;7.10;61.60
39777;DHT22;25453;48.162;14.510;2023-03-05T08:07:27;7.10;61.40
39777;DHT22;25453;48.162;14.510;2023-03-05T08:09:54;7.10;61.40
39777;DHT22;25453;48.162;14.510;2023-03-05T08:12:21;7.10;61.40
39777;DHT22;25453;48.162;14.510;2023-03-05T08:14:49;7.10;61.10
39777;DHT22;25453;48.162;14.510;2023-03-05T08:17:17;7.10;61.30
39777;DHT22;25453;48.162;14.510;2023-03-05T08:19:44;7.10;61.40
39777;DHT22;25453;48.162;14.510;2023-03-05T08:22:11;7.20;61.30
39777;DHT22;25453;48.162;14.510;2023-03-05T08:24:38;7.20;61.10
39777;DHT22;25453;48.162;14.510;2023-03-05T08:27:05;7.20;61.30
39777;DHT22;25453;48.162;14.510;2023-03-05T08:29:32;7.20;61.10
39777;DHT22;25453;48.162;14.510;2023-03-05T08:31:59;7.20;61.00
39777;DHT22;25453;48.162;14.510;2023-03-05T08:34:26;7.20;61.00
39777;DHT22;25453;48.162;14.510;2023-03-05T08:36:53;7.10;61.00
39777;DHT22;25453;48.162;14.510;2023-03-05T08:39:20;7.20;61.10
39777;DHT22;25453;48.162;14.510;2023-03-05T08:41:47;7.20;61.10
39777;DHT22;25453;48.162;14.510;2023-03-05T08:44:14;7.20;61.10
39777;DHT22;25453;48.162;14.510;2023-03-05T08:46:41;7.20;61.00
39777;DHT22;25453;48.162;14.510;2023-03-05T08:49:08;7.20;61.00
39777;DHT22;25453;48.162;14.510;2023-03-05T08:51:35;7.20;61.00
39777;DHT22;25453;48.162;14.510;2023-03-05T08:54:03;7.20;60.90
39777;DHT22;25453;48.162;14.510;2023-03-05T08:56:33;7.10;60.70
39777;DHT22;25453;48.162;14.510;2023-03-05T08:59:00;7.10;60.70
39777;DHT22;25453;48.162;14.510;2023-03-05T09:01:27;7.10;60.70
39777;DHT22;25453;48.162;14.510;2023-03-05T09:03:56;7.10;60.80
39777;DHT22;25453;48.162;14.510;2023-03-05T09:06:23;7.10;60.90
39777;DHT22;25453;48.162;14.510;2023-03-05T09:08:50;7.10;61.00
39777;DHT22;25453;48.162;14.510;2023-03-05T09:11:18;7.10;60.90
39777;DHT22;25453;48.162;14.510;2023-03-05T09:13:45;7.20;60.80
39777;DHT22;25453;48.162;14.510;2023-03-05T09:16:13;7.20;60.70
39777;DHT22;25453;48.162;14.510;2023-03-05T09:18:40;7.20;60.70
39777;DHT22;25453;48.162;14.510;2023-03-05T09:21:08;7.20;60.80
39777;DHT22;25453;48.162;14.510;2023-03-05T09:23:36;7.30;60.80
39777;DHT22;25453;48.162;14.510;2023-03-05T09:26:04;7.40;60.80
39777;DHT22;25453;48.162;14.510;2023-03-05T09:28:31;7.40;60.50
39777;DHT22;25453;48.162;14.510;2023-03-05T09:31:00;7.40;60.30
39777;DHT22;25453;48.162;14.510;2023-03-05T09:33:27;7.40;60.20
39777;DHT22;25453;48.162;14.510;2023-03-05T09:35:54;7.40;60.30
39777;DHT22;25453;48.162;14.510;2023-03-05T09:38:21;7.50;60.20
39777;DHT22;25453;48.162;14.510;2023-03-05T09:43:56;7.50;60.00
39777;DHT22;25453;48.162;14.510;2023-03-05T09:48:52;7.60;59.70
39777;DHT22;25453;48.162;14.510;2023-03-05T09:51:23;7.60;59.40
39777;DHT22;25453;48.162;14.510;2023-03-05T09:54:02;7.60;59.10
39777;DHT22;25453;48.162;14.510;2023-03-05T09:56:33;7.60;59.10
39777;DHT22;25453;48.162;14.510;2023-03-05T09:59:13;7.60;59.10
39777;DHT22;25453;48.162;14.510;2023-03-05T10:01:43;7.60;58.80
39777;DHT22;25453;48.162;14.510;2023-03-05T10:04:23;7.60;58.90
39777;DHT22;25453;48.162;14.510;2023-03-05T10:06:54;7.60;58.90
39777;DHT22;25453;48.162;14.510;2023-03-05T10:09:42;7.70;58.90
39777;DHT22;25453;48.162;14.510;2023-03-05T10:12:12;7.80;59.10
39777;DHT22;25453;48.162;14.510;2023-03-05T10:14:41;7.80;59.30
39777;DHT22;25453;48.162;14.510;2023-03-05T10:24:57;8.00;58.50
39777;DHT22;25453;48.162;14.510;2023-03-05T10:32:54;8.00;57.50
39777;DHT22;25453;48.162;14.510;2023-03-05T10:35:39;8.00;57.40
39777;DHT22;25453;48.162;14.510;2023-03-05T10:43:30;7.90;57.00
39777;DHT22;25453;48.162;14.510;2023-03-05T10:46:00;7.90;57.10
39777;DHT22;25453;48.162;14.510;2023-03-05T10:48:49;7.90;57.20
39777;DHT22;25453;48.162;14.510;2023-03-05T10:54:32;8.00;57.60
39777;DHT22;25453;48.162;14.510;2023-03-05T10:57:01;8.10;57.30
39777;DHT22;25453;48.162;14.510;2023-03-05T10:59:28;8.20;56.90
39777;DHT22;25453;48.162;14.510;2023-03-05T11:02:06;8.20;56.60
39777;DHT22;25453;48.162;14.510;2023-03-05T11:04:35;8.20;56.40
39777;DHT22;25453;48.162;14.510;2023-03-05T11:09:42;8.20;56.10
39777;DHT22;25453;48.162;14.510;2023-03-05T11:14:37;8.30;56.30
39777;DHT22;25453;48.162;14.510;2023-03-05T11:17:22;8.40;56.10
39777;DHT22;25453;48.162;14.510;2023-03-05T11:19:49;8.50;55.60
39777;DHT22;25453;48.162;14.510;2023-03-05T11:22:21;8.50;55.20
39777;DHT22;25453;48.162;14.510;2023-03-05T11:25:10;8.60;55.20
39777;DHT22;25453;48.162;14.510;2023-03-05T11:27:49;8.70;55.00
39777;DHT22;25453;48.162;14.510;2023-03-05T11:30:21;8.70;54.90
39777;DHT22;25453;48.162;14.510;2023-03-05T11:35:37;8.90;54.50
39777;DHT22;25453;48.162;14.510;2023-03-05T11:38:06;8.90;54.40
39777;DHT22;25453;48.162;14.510;2023-03-05T11:40:33;9.00;54.40
39777;DHT22;25453;48.162;14.510;2023-03-05T11:43:03;9.10;53.80
39777;DHT22;25453;48.162;14.510;2023-03-05T11:45:31;9.10;53.50
39777;DHT22;25453;48.162;14.510;2023-03-05T11:48:14;9.00;52.90
39777;DHT22;25453;48.162;14.510;2023-03-05T11:50:44;8.90;52.90
39777;DHT22;25453;48.162;14.510;2023-03-05T11:53:20;8.90;52.90
39777;DHT22;25453;48.162;14.510;2023-03-05T12:01:00;8.80;52.90
39777;DHT22;25453;48.162;14.510;2023-03-05T12:03:35;8.70;52.60
39777;DHT22;25453;48.162;14.510;2023-03-05T12:08:41;8.70;52.40
39777;DHT22;25453;48.162;14.510;2023-03-05T12:11:17;8.60;52.30
39777;DHT22;25453;48.162;14.510;2023-03-05T12:13:47;8.60;52.30
39777;DHT22;25453;48.162;14.510;2023-03-05T12:16:49;8.60;52.40
39777;DHT22;25453;48.162;14.510;2023-03-05T12:21:35;8.60;52.40
39777;DHT22;25453;48.162;14.510;2023-03-05T12:32:50;8.70;52.00
39777;DHT22;25453;48.162;14.510;2023-03-05T12:47:46;8.60;51.50
39777;DHT22;25453;48.162;14.510;2023-03-05T13:03:47;8.60;51.20
39777;DHT22;25453;48.162;14.510;2023-03-05T13:06:23;8.60;51.30
39777;DHT22;25453;48.162;14.510;2023-03-05T13:08:57;8.60;51.30
39777;DHT22;25453;48.162;14.510;2023-03-05T13:11:24;8.60;51.30
39777;DHT22;25453;48.162;14.510;2023-03-05T13:13:51;8.60;51.30
39777;DHT22;25453;48.162;14.510;2023-03-05T13:16:19;8.60;51.10
39777;DHT22;25453;48.162;14.510;2023-03-05T13:18:48;8.60;51.10
39777;DHT22;25453;48.162;14.510;2023-03-05T13:21:16;8.60;51.10
39777;DHT22;25453;48.162;14.510;2023-03-05T13:28:41;8.50;51.20
39777;DHT22;25453;48.162;14.510;2023-03-05T13:31:16;8.50;51.20
39777;DHT22;25453;48.162;14.510;2023-03-05T13:33:51;8.50;51.10
39777;DHT22;25453;48.162;14.510;2023-03-05T13:36:24;8.50;51.10
39777;DHT22;25453;48.162;14.510;2023-03-05T13:38:51;8.50;51.10
39777;DHT22;25453;48.162;14.510;2023-03-05T13:43:47;8.50;51.30
39777;DHT22;25453;48.162;14.510;2023-03-05T13:46:31;8.50;51.30
39777;DHT22;25453;48.162;14.510;2023-03-05T13:51:45;8.50;51.10
39777;DHT22;25453;48.162;14.510;2023-03-05T13:54:13;8.50;51.00
39777;DHT22;25453;48.162;14.510;2023-03-05T13:57:30;8.50;51.00
39777;DHT22;25453;48.162;14.510;2023-03-05T13:59:35;8.50;51.10
39777;DHT22;25453;48.162;14.510;2023-03-05T14:02:14;8.50;51.20
39777;DHT22;25453;48.162;14.510;2023-03-05T14:04:43;8.60;51.20
39777;DHT22;25453;48.162;14.510;2023-03-05T14:07:23;8.60;51.20
39777;DHT22;25453;48.162;14.510;2023-03-05T14:09:52;8.60;51.00
39777;DHT22;25453;48.162;14.510;2023-03-05T14:12:27;8.50;50.90
39777;DHT22;25453;48.162;14.510;2023-03-05T14:14:59;8.50;51.00
39777;DHT22;25453;48.162;14.510;2023-03-05T14:22:35;8.40;50.80
39777;DHT22;25453;48.162;14.510;2023-03-05T14:25:03;8.40;51.00
39777;DHT22;25453;48.162;14.510;2023-03-05T14:27:32;8.40;51.10
39777;DHT22;25453;48.162;14.510;2023-03-05T14:30:00;8.40;51.30
39777;DHT22;25453;48.162;14.510;2023-03-05T14:32:34;8.40;51.40
39777;DHT22;25453;48.162;14.510;2023-03-05T14:35:02;8.40;51.50
39777;DHT22;25453;48.162;14.510;2023-03-05T14:37:34;8.40;51.50
39777;DHT22;25453;48.162;14.510;2023-03-05T14:40:03;8.40;51.60
39777;DHT22;25453;48.162;14.510;2023-03-05T14:42:34;8.40;51.70
39777;DHT22;25453;48.162;14.510;2023-03-05T14:47:41;8.40;51.70
39777;DHT22;25453;48.162;14.510;2023-03-05T14:50:10;8.40;51.90
39777;DHT22;25453;48.162;14.510;2023-03-05T14:52:37;8.40;51.80
39777;DHT22;25453;48.162;14.510;2023-03-05T14:55:04;8.40;51.80
39777;DHT22;25453;48.162;14.510;2023-03-05T14:57:31;8.40;51.80
39777;DHT22;25453;48.162;14.510;2023-03-05T14:59:58;8.40;51.80
39777;DHT22;25453;48.162;14.510;2023-03-05T15:02:25;8.40;51.90
39777;DHT22;25453;48.162;14.510;2023-03-05T15:04:53;8.40;51.90
39777;DHT22;25453;48.162;14.510;2023-03-05T15:07:21;8.30;51.90
39777;DHT22;25453;48.162;14.510;2023-03-05T15:09:49;8.30;52.00
39777;DHT22;25453;48.162;14.510;2023-03-05T15:12:16;8.30;52.10
39777;DHT22;25453;48.162;14.510;2023-03-05T15:14:43;8.30;52.10
39777;DHT22;25453;48.162;14.510;2023-03-05T15:17:12;8.40;52.20
39777;DHT22;25453;48.162;14.510;2023-03-05T15:19:40;8.40;52.20
39777;DHT22;25453;48.162;14.510;2023-03-05T15:22:09;8.30;52.20
39777;DHT22;25453;48.162;14.510;2023-03-05T15:24:37;8.30;52.20
39777;DHT22;25453;48.162;14.510;2023-03-05T15:27:04;8.30;52.30
39777;DHT22;25453;48.162;14.510;2023-03-05T15:29:32;8.30;52.40
39777;DHT22;25453;48.162;14.510;2023-03-05T15:31:59;8.30;52.40
39777;DHT22;25453;48.162;14.510;2023-03-05T15:34:27;8.30;52.50
39777;DHT22;25453;48.162;14.510;2023-03-05T15:36:55;8.30;52.40
39777;DHT22;25453;48.162;14.510;2023-03-05T15:39:22;8.30;52.50
39777;DHT22;25453;48.162;14.510;2023-03-05T15:41:52;8.40;52.50
39777;DHT22;25453;48.162;14.510;2023-03-05T15:44:19;8.40;52.50
39777;DHT22;25453;48.162;14.510;2023-03-05T15:46:47;8.40;52.50
39777;DHT22;25453;48.162;14.510;2023-03-05T15:49:14;8.40;52.50
39777;DHT22;25453;48.162;14.510;2023-03-05T15:51:41;8.40;52.40
39777;DHT22;25453;48.162;14.510;2023-03-05T15:54:08;8.40;52.50
39777;DHT22;25453;48.162;14.510;2023-03-05T15:56:35;8.40;52.50
39777;DHT22;25453;48.162;14.510;2023-03-05T15:59:02;8.40;52.50
39777;DHT22;25453;48.162;14.510;2023-03-05T16:01:29;8.40;52.50
39777;DHT22;25453;48.162;14.510;2023-03-05T16:03:56;8.40;52.60
39777;DHT22;25453;48.162;14.510;2023-03-05T16:06:23;8.40;52.70
39777;DHT22;25453;48.162;14.510;2023-03-05T16:08:51;8.40;52.70
39777;DHT22;25453;48.162;14.510;2023-03-05T16:11:20;8.40;52.60
39777;DHT22;25453;48.162;14.510;2023-03-05T16:13:47;8.40;52.60
39777;DHT22;25453;48.162;14.510;2023-03-05T16:16:16;8.40;52.60
39777;DHT22;25453;48.162;14.510;2023-03-05T16:18:43;8.40;52.60
39777;DHT22;25453;48.162;14.510;2023-03-05T16:21:11;8.40;52.50
39777;DHT22;25453;48.162;14.510;2023-03-05T16:23:39;8.40;52.50
39777;DHT22;25453;48.162;14.510;2023-03-05T16:26:07;8.40;52.50
39777;DHT22;25453;48.162;14.510;2023-03-05T16:28:34;8.40;52.40
39777;DHT22;25453;48.162;14.510;2023-03-05T16:31:01;8.30;52.50
39777;DHT22;25453;48.162;14.510;2023-03-05T16:33:28;8.30;52.50
39777;DHT22;25453;48.162;14.510;2023-03-05T16:36:15;8.30;52.60
39777;DHT22;25453;48.162;14.510;2023-03-05T16:38:49;8.30;52.40
39777;DHT22;25453;48.162;14.510;2023-03-05T16:41:16;8.30;52.50
39777;DHT22;25453;48.162;14.510;2023-03-05T16:43:44;8.30;52.50
39777;DHT22;25453;48.162;14.510;2023-03-05T16:46:12;8.30;52.50
39777;DHT22;25453;48.162;14.510;2023-03-05T16:48:43;8.30;52.60
39777;DHT22;25453;48.162;14.510;2023-03-05T16:51:10;8.30;52.60
39777;DHT22;25453;48.162;14.510;2023-03-05T16:53:38;8.30;52.60
39777;DHT22;25453;48.162;14.510;2023-03-05T16:56:05;8.20;52.50
39777;DHT22;25453;48.162;14.510;2023-03-05T16:58:33;8.20;52.60
39777;DHT22;25453;48.162;14.510;2023-03-05T17:01:00;8.20;52.60
39777;DHT22;25453;48.162;14.510;2023-03-05T17:03:27;8.20;52.60
39777;DHT22;25453;48.162;14.510;2023-03-05T17:05:55;8.20;52.70
39777;DHT22;25453;48.162;14.510;2023-03-05T17:08:22;8.20;52.60
39777;DHT22;25453;48.162;14.510;2023-03-05T17:10:50;8.20;52.60
39777;DHT22;25453;48.162;14.510;2023-03-05T17:13:17;8.20;52.60
39777;DHT22;25453;48.162;14.510;2023-03-05T17:15:44;8.20;52.60
39777;DHT22;25453;48.162;14.510;2023-03-05T17:18:11;8.20;52.60
39777;DHT22;25453;48.162;14.510;2023-03-05T17:20:38;8.10;52.60